Time;durP1;ratioP1;P1;durP2;ratioP2;P2;SDS_P1;SDS_P2;PMS_P1;PMS_P2;Temp;Humidity;BMP_temperature;BMP_pressure;BME280_temperature;BME280_humidity;BME280_pressure;Samples;Min_cycle;Max_cycle;Signal;HPM_P1;HPM_P2
2021/01/21 00:01:02;;;;;;;12.20;8.37;;;;;;;2.95;73.44;96721.41;6068718;23;21122;-83
2021/01/21 00:03:28;;;;;;;13.77;8.90;;;;;;;2.96;73.59;96725.66;6070661;23;20239;-84
2021/01/21 00:05:55;;;;;;;10.63;8.30;;;;;;;2.96;73.45;96720.50;6070359;23;20299;-85
2021/01/21 00:08:21;;;;;;;12.27;8.53;;;;;;;2.93;73.48;96718.03;6067842;23;20839;-83
2021/01/21 00:10:47;;;;;;;14.23;10.07;;;;;;;2.94;73.35;96711.97;6070810;23;20307;-84
2021/01/21 00:13:14;;;;;;;14.23;9.47;;;;;;;2.98;73.40;96719.56;6071102;23;20224;-84
2021/01/21 00:15:41;;;;;;;13.73;9.13;;;;;;;3.00;73.77;96709.22;6070558;23;20842;-84
2021/01/21 00:18:07;;;;;;;12.97;9.43;;;;;;;3.02;73.54;96704.88;6071178;23;21000;-83
2021/01/21 00:20:33;;;;;;;14.53;9.90;;;;;;;3.02;73.73;96700.56;6072202;23;20299;-82
2021/01/21 00:23:00;;;;;;;12.60;9.17;;;;;;;3.03;73.57;96691.94;6071217;23;20204;-84
2021/01/21 00:25:26;;;;;;;12.90;9.77;;;;;;;3.05;73.46;96695.31;6070843;23;20667;-84
2021/01/21 00:27:52;;;;;;;12.60;8.73;;;;;;;3.09;73.51;96693.47;6071414;23;20203;-83
2021/01/21 00:30:20;;;;;;;13.13;8.97;;;;;;;3.12;73.43;96684.81;6069665;23;20209;-84
2021/01/21 00:32:46;;;;;;;12.63;9.03;;;;;;;3.14;73.75;96683.84;6071228;23;20189;-84
2021/01/21 00:35:13;;;;;;;12.23;9.00;;;;;;;3.14;73.36;96668.38;6070098;23;20300;-84
2021/01/21 00:37:39;;;;;;;11.53;8.63;;;;;;;3.16;73.50;96670.91;6073688;23;20199;-84
2021/01/21 00:40:07;;;;;;;12.80;8.67;;;;;;;3.14;73.66;96668.38;6069402;23;20639;-84
2021/01/21 00:42:33;;;;;;;9.43;7.80;;;;;;;3.16;73.67;96666.63;6071161;23;20267;-84
2021/01/21 00:44:59;;;;;;;11.97;8.50;;;;;;;3.18;73.35;96669.13;6070230;23;20708;-83
2021/01/21 00:47:26;;;;;;;13.13;8.80;;;;;;;3.17;73.38;96663.13;6068894;23;20680;-83
2021/01/21 00:49:53;;;;;;;11.13;8.47;;;;;;;3.18;73.58;96663.97;6070869;23;20479;-84
2021/01/21 00:52:19;;;;;;;11.13;8.37;;;;;;;3.17;73.60;96658.00;6067906;23;20303;-85
2021/01/21 00:54:45;;;;;;;14.37;9.53;;;;;;;3.17;73.29;96663.13;6069005;23;20727;-84
2021/01/21 00:57:11;;;;;;;12.93;8.63;;;;;;;3.18;73.51;96654.53;6069612;23;20247;-84
2021/01/21 00:59:38;;;;;;;14.43;8.70;;;;;;;3.19;73.25;96663.94;6072064;23;20901;-82
2021/01/21 01:02:04;;;;;;;13.77;9.07;;;;;;;3.17;73.60;96668.28;6070225;23;20235;-82
2021/01/21 01:04:31;;;;;;;11.67;8.43;;;;;;;3.13;73.36;96677.03;6071576;23;20212;-83
2021/01/21 01:06:57;;;;;;;11.60;8.13;;;;;;;3.11;73.62;96667.63;6069228;23;20228;-84
2021/01/21 01:09:24;;;;;;;11.10;8.47;;;;;;;3.11;73.78;96667.63;6071045;23;20525;-85
2021/01/21 01:11:50;;;;;;;11.43;8.67;;;;;;;3.11;73.92;96665.94;6043339;23;20763;-84
2021/01/21 01:14:16;;;;;;;9.97;8.03;;;;;;;3.11;73.55;96662.50;6070591;23;20728;-83
2021/01/21 01:16:43;;;;;;;12.23;8.17;;;;;;;3.11;73.95;96663.34;6071594;23;20225;-85
2021/01/21 01:19:09;;;;;;;13.33;8.87;;;;;;;3.12;73.72;96670.16;6044818;23;20219;-83
2021/01/21 01:21:36;;;;;;;12.90;8.80;;;;;;;3.11;73.78;96663.34;6071626;23;20278;-83
2021/01/21 01:24:02;;;;;;;12.70;8.77;;;;;;;3.12;73.97;96664.19;6076774;23;20189;-85
2021/01/21 01:26:29;;;;;;;11.07;8.57;;;;;;;3.14;74.02;96660.66;6074733;23;20312;-85
2021/01/21 01:28:55;;;;;;;12.90;8.53;;;;;;;3.18;73.96;96658.81;6076733;23;20272;-84
2021/01/21 01:31:21;;;;;;;14.67;8.77;;;;;;;3.14;73.93;96642.63;6072106;23;20229;-84
2021/01/21 01:33:49;;;;;;;11.23;8.80;;;;;;;3.22;73.91;96653.53;6076041;23;20296;-83
2021/01/21 01:36:15;;;;;;;11.77;8.67;;;;;;;3.20;73.89;96645.00;6071992;23;20693;-84
2021/01/21 01:38:42;;;;;;;10.77;7.43;;;;;;;3.15;73.50;96638.34;6075860;23;20211;-84
2021/01/21 01:41:09;;;;;;;11.83;8.33;;;;;;;3.16;73.76;96640.88;6075365;23;20231;-85
2021/01/21 01:43:35;;;;;;;13.00;8.40;;;;;;;3.19;73.92;96635.59;6077378;23;20619;-82
2021/01/21 01:46:02;;;;;;;10.73;8.40;;;;;;;3.18;73.72;96639.06;6074380;23;20225;-83
2021/01/21 01:48:28;;;;;;;11.70;8.30;;;;;;;3.15;74.15;96634.00;6051465;23;20185;-84
2021/01/21 01:50:55;;;;;;;12.73;8.57;;;;;;;3.16;74.00;96633.13;6052325;23;20225;-84
2021/01/21 01:53:21;;;;;;;14.13;8.00;;;;;;;3.14;73.66;96641.78;6080319;23;20255;-83
2021/01/21 01:55:48;;;;;;;11.30;8.23;;;;;;;3.10;73.95;96646.19;6075092;23;20212;-84
2021/01/21 01:58:17;;;;;;;12.87;9.40;;;;;;;3.09;74.01;96644.53;6077337;23;20286;-84
2021/01/21 02:00:44;;;;;;;11.63;8.67;;;;;;;3.05;73.75;96650.66;6078211;23;20224;-83
2021/01/21 02:03:11;;;;;;;12.77;8.97;;;;;;;3.03;73.89;96658.47;6079394;23;20530;-83
2021/01/21 02:05:37;;;;;;;13.33;9.03;;;;;;;3.00;74.05;96660.28;6076675;23;20227;-82
2021/01/21 02:08:04;;;;;;;11.33;8.13;;;;;;;2.94;73.95;96655.31;6077008;23;20185;-82
2021/01/21 02:10:30;;;;;;;13.37;9.57;;;;;;;2.91;74.02;96668.31;6073139;23;20224;-84
2021/01/21 02:13:13;;;;;;;12.17;9.47;;;;;;;2.84;74.38;96659.94;6079596;23;20299;-84
2021/01/21 02:15:52;;;;;;;13.53;8.70;;;;;;;2.85;74.23;96659.06;6077704;23;20232;-82
2021/01/21 02:18:21;;;;;;;14.80;8.80;;;;;;;2.84;74.36;96659.94;6079294;23;20212;-83
2021/01/21 02:21:23;;;;;;;13.67;8.73;;;;;;;2.77;75.00;96648.13;6077573;23;20216;-84
2021/01/21 02:24:22;;;;;;;13.77;8.83;;;;;;;2.82;73.96;96647.09;6044080;23;20831;-84
2021/01/21 02:26:51;;;;;;;12.77;9.50;;;;;;;2.85;74.56;96635.88;6046974;23;20328;-85
2021/01/21 02:29:21;;;;;;;12.83;9.10;;;;;;;2.88;74.42;96644.31;6078849;23;20577;-83
2021/01/21 02:32:24;;;;;;;13.90;9.60;;;;;;;2.92;74.35;96637.34;6077723;23;20229;-84
2021/01/21 02:34:55;;;;;;;13.20;9.93;;;;;;;2.96;74.70;96635.50;6060048;23;20203;-85
2021/01/21 02:37:24;;;;;;;12.73;9.30;;;;;;;2.99;74.31;96622.53;6077448;23;20614;-84
2021/01/21 02:39:53;;;;;;;12.77;9.50;;;;;;;3.04;74.32;96618.91;6079624;23;20209;-83
2021/01/21 02:42:19;;;;;;;13.50;9.73;;;;;;;3.09;74.65;96613.63;6078500;23;20449;-85
2021/01/21 02:44:47;;;;;;;14.47;9.33;;;;;;;3.16;74.28;96619.38;6076167;23;20280;-82
2021/01/21 02:47:13;;;;;;;12.17;8.67;;;;;;;3.23;74.28;96613.13;6076808;23;20221;-83
2021/01/21 02:49:39;;;;;;;11.40;8.87;;;;;;;3.30;74.18;96613.78;6079923;23;20193;-83
2021/01/21 02:52:13;;;;;;;11.87;7.33;;;;;;;3.25;73.24;96609.63;6075027;23;20217;-82
2021/01/21 02:54:47;;;;;;;10.47;7.70;;;;;;;3.18;73.44;96604.72;6077845;23;20189;-83
2021/01/21 02:57:28;;;;;;;11.30;8.77;;;;;;;3.16;73.56;96607.38;6077701;23;20778;-83
2021/01/21 02:59:56;;;;;;;12.57;8.47;;;;;;;3.19;74.04;96614.97;6080572;23;20215;-82
2021/01/21 03:02:25;;;;;;;12.30;8.43;;;;;;;3.19;73.57;96614.97;6076449;23;20307;-84
2021/01/21 03:04:51;;;;;;;10.23;7.60;;;;;;;3.19;73.84;96627.84;6079278;23;20796;-84
2021/01/21 03:07:20;;;;;;;11.17;7.93;;;;;;;3.08;73.66;96615.34;6076089;23;20526;-84
2021/01/21 03:09:46;;;;;;;12.67;8.47;;;;;;;3.07;74.21;96617.97;6079585;23;20185;-84
2021/01/21 03:12:17;;;;;;;13.53;8.80;;;;;;;3.11;73.98;96605.81;6073146;23;20410;-84
2021/01/21 03:14:43;;;;;;;10.87;7.67;;;;;;;3.16;73.75;96599.66;6076624;23;20819;-84
2021/01/21 03:17:09;;;;;;;12.80;8.50;;;;;;;3.23;73.99;96593.34;6074060;23;20231;-84
2021/01/21 03:19:35;;;;;;;12.50;8.67;;;;;;;3.28;73.63;96578.59;6078316;23;20213;-84
2021/01/21 03:22:02;;;;;;;12.90;8.47;;;;;;;3.32;73.63;96573.34;6073564;23;20228;-84
2021/01/21 03:24:29;;;;;;;10.17;7.20;;;;;;;3.30;73.32;96581.13;6078153;23;20200;-84
2021/01/21 03:26:55;;;;;;;12.60;7.90;;;;;;;3.26;73.18;96597.59;6077105;23;20299;-82
2021/01/21 03:29:21;;;;;;;12.07;8.03;;;;;;;3.19;73.62;96599.50;6078605;23;20185;-82
2021/01/21 03:31:48;;;;;;;12.57;8.30;;;;;;;3.22;73.60;96583.97;6074370;23;20229;-82
2021/01/21 03:34:14;;;;;;;10.87;7.60;;;;;;;3.18;73.74;96597.84;6072063;23;20185;-85
2021/01/21 03:36:40;;;;;;;9.47;6.80;;;;;;;3.16;73.49;96609.09;6075553;23;20212;-84
2021/01/21 03:39:06;;;;;;;12.13;7.07;;;;;;;3.17;73.65;96598.72;6077117;23;20208;-82
2021/01/21 03:41:33;;;;;;;13.03;8.37;;;;;;;3.23;73.54;96606.25;6075846;23;20224;-84
2021/01/21 03:44:00;;;;;;;9.43;6.67;;;;;;;3.23;73.50;96611.41;6078340;23;20264;-85
2021/01/21 03:46:26;;;;;;;10.60;7.07;;;;;;;3.24;73.35;96602.78;6074778;23;20223;-84
2021/01/21 03:48:53;;;;;;;11.97;6.33;;;;;;;3.31;73.49;96608.59;6080560;23;20192;-83
2021/01/21 03:51:19;;;;;;;11.83;7.83;;;;;;;3.39;73.55;96605.72;6075077;23;20224;-84
2021/01/21 03:53:45;;;;;;;9.37;6.60;;;;;;;3.43;72.83;96599.56;6081649;23;20185;-83
2021/01/21 03:56:11;;;;;;;9.43;6.43;;;;;;;3.48;73.24;96597.69;6075313;23;20292;-83
2021/01/21 03:58:38;;;;;;;10.97;7.23;;;;;;;3.44;73.36;96588.38;6077127;23;20299;-83
2021/01/21 04:01:05;;;;;;;10.97;7.00;;;;;;;3.41;73.03;96573.00;6074989;23;20224;-82
2021/01/21 04:03:32;;;;;;;10.63;7.27;;;;;;;3.38;72.92;96562.81;6052993;23;20683;-85
2021/01/21 04:05:59;;;;;;;9.57;6.30;;;;;;;3.36;72.85;96551.72;6052091;23;20307;-83
2021/01/21 04:08:25;;;;;;;9.87;7.20;;;;;;;3.35;73.05;96553.44;6079485;23;20184;-84
2021/01/21 04:10:51;;;;;;;8.90;6.23;;;;;;;3.35;73.33;96565.50;6078552;23;20216;-83
2021/01/21 04:13:17;;;;;;;8.57;6.20;;;;;;;3.40;73.04;96561.00;6077490;23;20594;-84
2021/01/21 04:15:45;;;;;;;10.73;7.60;;;;;;;3.46;72.70;96556.47;6078302;23;20559;-83
2021/01/21 04:18:11;;;;;;;10.73;6.80;;;;;;;3.56;72.44;96540.69;6079617;23;20223;-84
2021/01/21 04:20:37;;;;;;;8.67;6.40;;;;;;;3.60;72.64;96522.50;6075944;23;20224;-84
2021/01/21 04:23:03;;;;;;;8.13;5.47;;;;;;;3.59;72.82;96551.72;6078763;23;20716;-83
2021/01/21 04:25:30;;;;;;;8.63;5.70;;;;;;;3.57;72.69;96563.84;6075446;23;20216;-84
2021/01/21 04:27:56;;;;;;;8.33;5.73;;;;;;;3.63;72.74;96553.28;6081166;23;20678;-85
2021/01/21 04:30:23;;;;;;;7.13;5.20;;;;;;;3.72;72.51;96543.56;6051382;23;20225;-84
2021/01/21 04:32:50;;;;;;;6.63;5.20;;;;;;;3.82;72.27;96542.28;6078529;23;20255;-84
2021/01/21 04:35:16;;;;;;;8.43;5.90;;;;;;;3.92;71.85;96533.31;6049118;23;20224;-84
2021/01/21 04:37:42;;;;;;;6.93;4.60;;;;;;;3.98;71.56;96532.25;6076447;23;20188;-84
2021/01/21 04:40:09;;;;;;;7.50;5.13;;;;;;;4.01;71.31;96507.19;6049570;23;20801;-83
2021/01/21 04:42:36;;;;;;;9.00;6.07;;;;;;;4.03;71.66;96525.19;6079077;23;20192;-84
2021/01/21 04:45:02;;;;;;;8.77;6.60;;;;;;;3.97;71.58;96588.19;6077557;23;20257;-84
2021/01/21 04:47:29;;;;;;;7.37;5.23;;;;;;;3.98;71.31;96568.38;6076124;23;20227;-84
2021/01/21 04:49:57;;;;;;;6.67;4.77;;;;;;;4.01;70.82;96548.47;6051737;23;20185;-84
2021/01/21 04:52:23;;;;;;;6.13;4.53;;;;;;;4.08;70.88;96551.66;6074852;23;20476;-83
2021/01/21 04:54:53;;;;;;;7.00;4.67;;;;;;;4.14;70.88;96525.59;6078917;23;20225;-84
2021/01/21 04:57:21;;;;;;;5.07;3.90;;;;;;;4.21;70.44;96545.13;6076592;23;20217;-84
2021/01/21 04:59:47;;;;;;;5.47;3.80;;;;;;;4.26;70.67;96537.16;6079864;23;20316;-84
2021/01/21 05:02:14;;;;;;;5.93;4.00;;;;;;;4.31;70.58;96545.59;6077593;23;20232;-84
2021/01/21 05:04:40;;;;;;;6.40;4.33;;;;;;;4.36;70.15;96528.19;6076568;23;20226;-84
2021/01/21 05:07:08;;;;;;;6.87;4.60;;;;;;;4.37;69.82;96540.16;6075044;23;20224;-84
2021/01/21 05:09:35;;;;;;;6.63;4.20;;;;;;;4.45;70.02;96542.47;6077571;23;20264;-83
2021/01/21 05:12:02;;;;;;;5.63;4.40;;;;;;;4.46;69.46;96538.97;6075558;23;20244;-84
2021/01/21 05:14:28;;;;;;;6.50;4.20;;;;;;;4.52;69.19;96525.84;6051352;23;20189;-82
2021/01/21 05:16:54;;;;;;;6.87;4.17;;;;;;;4.59;69.50;96518.66;6078461;23;20879;-83
2021/01/21 05:19:21;;;;;;;5.77;3.77;;;;;;;4.61;69.16;96527.19;6077421;23;20211;-84
2021/01/21 05:21:47;;;;;;;5.37;3.93;;;;;;;4.66;68.93;96533.00;6074385;23;20221;-84
2021/01/21 05:24:14;;;;;;;5.80;4.00;;;;;;;4.67;68.91;96531.25;6076322;23;20196;-84
2021/01/21 05:26:42;;;;;;;6.00;4.17;;;;;;;4.67;68.86;96526.94;6077065;23;20227;-85
2021/01/21 05:29:10;;;;;;;5.53;3.93;;;;;;;4.73;68.65;96542.19;6079444;23;20541;-84
2021/01/21 05:31:37;;;;;;;5.80;4.00;;;;;;;4.78;68.75;96540.25;6078610;23;20228;-85
2021/01/21 05:34:05;;;;;;;4.47;3.53;;;;;;;4.81;68.03;96524.59;6080445;23;20181;-83
2021/01/21 05:36:35;;;;;;;5.33;3.90;;;;;;;4.87;67.81;96527.84;6076298;23;20220;-84
2021/01/21 05:39:05;;;;;;;6.33;3.83;;;;;;;4.87;68.12;96539.03;6079244;23;20213;-84
2021/01/21 05:41:33;;;;;;;5.13;3.50;;;;;;;4.86;67.89;96537.34;6078375;23;20303;-83
2021/01/21 05:44:01;;;;;;;7.37;3.40;;;;;;;4.89;67.36;96537.22;6078080;23;20542;-83
2021/01/21 05:46:27;;;;;;;5.70;3.43;;;;;;;4.94;67.71;96530.09;6075796;23;20216;-83
2021/01/21 05:48:53;;;;;;;6.03;3.60;;;;;;;5.00;67.86;96516.13;6079392;23;20187;-82
2021/01/21 05:51:20;;;;;;;6.30;3.80;;;;;;;5.04;67.42;96489.22;6073421;23;20229;-83
2021/01/21 05:53:46;;;;;;;5.40;3.50;;;;;;;5.02;67.66;96471.22;6077139;23;20191;-84
2021/01/21 05:56:12;;;;;;;4.97;3.80;;;;;;;5.02;67.33;96460.03;6074516;23;20225;-85
2021/01/21 05:58:40;;;;;;;5.63;3.40;;;;;;;5.03;67.14;96479.78;6049375;23;20287;-84
2021/01/21 06:01:07;;;;;;;5.03;3.27;;;;;;;4.97;66.99;96456.81;6074611;23;20299;-85
2021/01/21 06:03:34;;;;;;;4.63;3.10;;;;;;;5.01;67.03;96471.25;6072562;23;20228;-85
2021/01/21 06:06:04;;;;;;;5.10;3.40;;;;;;;5.01;66.71;96477.25;6080992;23;20213;-84
2021/01/21 06:08:31;;;;;;;5.33;3.27;;;;;;;5.04;66.72;96486.66;6082931;23;20286;-83
2021/01/21 06:10:57;;;;;;;4.60;2.97;;;;;;;5.03;66.54;96490.94;6077897;23;21020;-84
2021/01/21 06:13:24;;;;;;;4.37;3.17;;;;;;;5.04;66.33;96465.97;6078116;23;20189;-84
2021/01/21 06:15:53;;;;;;;5.83;3.30;;;;;;;5.07;65.90;96494.25;6080337;23;20215;-83
2021/01/21 06:18:19;;;;;;;4.90;3.13;;;;;;;5.06;66.36;96456.41;6082648;23;20193;-84
2021/01/21 06:20:45;;;;;;;4.87;3.17;;;;;;;5.06;66.11;96477.06;6079676;23;20225;-83
2021/01/21 06:23:15;;;;;;;4.97;3.10;;;;;;;5.13;65.96;96468.16;6079586;23;20189;-84
2021/01/21 06:25:42;;;;;;;4.67;2.67;;;;;;;5.15;65.48;96481.84;6080787;23;20271;-85
2021/01/21 06:28:09;;;;;;;3.60;2.53;;;;;;;5.18;65.55;96486.91;6077364;23;20220;-84
2021/01/21 06:30:36;;;;;;;4.97;3.07;;;;;;;5.29;65.49;96493.31;6078919;23;20227;-83
2021/01/21 06:33:04;;;;;;;5.13;2.63;;;;;;;5.35;64.48;96487.91;6080654;23;20272;-84
2021/01/21 06:35:32;;;;;;;5.10;2.67;;;;;;;5.41;64.64;96479.88;6080961;23;20559;-84
2021/01/21 06:38:03;;;;;;;5.20;2.70;;;;;;;5.50;64.45;96479.44;6079129;23;20193;-84
2021/01/21 06:40:29;;;;;;;3.93;2.20;;;;;;;5.53;64.10;96473.28;6079253;23;20228;-84
2021/01/21 06:42:59;;;;;;;3.37;2.47;;;;;;;5.61;63.58;96473.78;6080936;23;20203;-84
2021/01/21 06:45:26;;;;;;;3.63;2.57;;;;;;;5.71;63.74;96479.38;6078836;23;20189;-84
2021/01/21 06:47:54;;;;;;;5.40;3.07;;;;;;;5.60;63.37;96488.44;6075938;23;20264;-85
2021/01/21 06:50:21;;;;;;;3.90;2.03;;;;;;;5.70;61.83;96498.41;6077532;23;20189;-84
2021/01/21 06:52:48;;;;;;;3.37;2.33;;;;;;;5.81;62.49;96511.69;6056052;23;20195;-84
2021/01/21 06:55:15;;;;;;;4.30;2.73;;;;;;;5.88;62.76;96513.09;6052437;23;20185;-85
2021/01/21 06:57:42;;;;;;;5.93;3.40;;;;;;;5.89;62.26;96514.75;6081719;23;20600;-84
2021/01/21 07:00:09;;;;;;;3.47;2.30;;;;;;;5.96;62.40;96521.34;6080369;23;20223;-84
2021/01/21 07:02:43;;;;;;;2.93;2.23;;;;;;;6.00;61.54;96521.22;6080639;23;20193;-85
2021/01/21 07:05:11;;;;;;;3.40;2.70;;;;;;;6.04;62.11;96517.56;6079634;23;20193;-85
2021/01/21 07:08:14;;;;;;;3.10;2.37;;;;;;;6.07;61.76;96513.09;6082680;23;20918;-84
2021/01/21 07:10:42;;;;;;;3.60;2.27;;;;;;;6.06;62.16;96500.22;6079135;23;20680;-85
2021/01/21 07:13:10;;;;;;;4.60;3.07;;;;;;;6.05;61.99;96516.69;6082746;23;20256;-85
2021/01/21 07:15:41;;;;;;;3.60;2.50;;;;;;;6.06;61.33;96505.41;6079905;23;20295;-83
2021/01/21 07:18:13;;;;;;;3.73;2.50;;;;;;;6.13;61.78;96499.03;6082419;23;20417;-84
2021/01/21 07:21:07;;;;;;;3.33;2.50;;;;;;;6.06;60.25;96510.56;6078871;23;20285;-83
2021/01/21 07:23:37;;;;;;;5.20;2.67;;;;;;;6.18;62.06;96515.19;6081605;23;20288;-84
2021/01/21 07:26:30;;;;;;;2.73;2.47;;;;;;;6.21;61.97;96509.00;6079556;23;20212;-83
2021/01/21 07:29:03;;;;;;;5.40;2.67;;;;;;;6.25;61.37;96511.41;6080115;23;20264;-84
2021/01/21 07:31:29;;;;;;;4.13;2.37;;;;;;;6.29;61.49;96507.75;6079929;23;20276;-83
2021/01/21 07:34:21;;;;;;;4.90;2.83;;;;;;;6.22;60.81;96524.47;6080223;23;20193;-84
2021/01/21 07:36:47;;;;;;;6.03;2.63;;;;;;;6.27;61.51;96519.94;6078325;23;20225;-84
2021/01/21 07:39:13;;;;;;;4.40;2.50;;;;;;;6.31;61.25;96531.81;6080619;23;20284;-85
2021/01/21 07:41:56;;;;;;;2.70;2.10;;;;;;;6.29;59.58;96528.47;6076216;23;20228;-85
2021/01/21 07:44:23;;;;;;;3.30;2.07;;;;;;;6.38;60.53;96506.47;6080045;23;20200;-85
2021/01/21 07:46:49;;;;;;;3.10;2.07;;;;;;;6.40;60.82;96515.00;6076586;23;20224;-84
2021/01/21 07:49:26;;;;;;;2.97;2.17;;;;;;;6.38;59.10;96501.28;6080911;23;20181;-84
2021/01/21 07:51:59;;;;;;;3.80;2.50;;;;;;;6.41;58.94;96505.47;6080124;23;20291;-85
2021/01/21 07:54:26;;;;;;;5.93;2.37;;;;;;;6.41;59.93;96501.13;6080864;23;20188;-85
2021/01/21 07:56:53;;;;;;;4.47;2.43;;;;;;;6.47;59.72;96495.66;6078499;23;20303;-85
2021/01/21 07:59:19;;;;;;;3.27;2.30;;;;;;;6.51;59.75;96491.19;6078248;23;20208;-84
2021/01/21 08:01:56;;;;;;;3.47;2.60;;;;;;;6.53;59.45;96489.34;6079311;23;20544;-83
2021/01/21 08:04:22;;;;;;;3.60;2.20;;;;;;;6.57;59.62;96501.22;6080780;23;20195;-84
2021/01/21 08:06:56;;;;;;;3.47;2.40;;;;;;;6.56;60.13;96496.94;6053427;23;20225;-84
2021/01/21 08:09:22;;;;;;;3.80;2.43;;;;;;;6.56;60.11;96500.41;6080507;23;20272;-83
2021/01/21 08:11:49;;;;;;;3.97;2.60;;;;;;;6.58;59.97;96508.09;6077100;23;20307;-85
2021/01/21 08:14:17;;;;;;;8.63;2.60;;;;;;;6.60;60.23;96516.63;6080457;23;20223;-85
2021/01/21 08:16:44;;;;;;;4.73;2.70;;;;;;;6.61;59.66;96513.09;6078298;23;20221;-84
2021/01/21 08:19:10;;;;;;;2.73;2.37;;;;;;;6.64;59.56;96525.91;6081504;23;20739;-85
2021/01/21 08:21:37;;;;;;;3.60;2.37;;;;;;;6.70;59.36;96529.97;6076774;23;20913;-84
2021/01/21 08:24:06;;;;;;;4.27;3.23;;;;;;;6.72;59.88;96531.56;6078115;23;20878;-84
2021/01/21 08:26:33;;;;;;;3.00;2.10;;;;;;;6.78;59.33;96529.59;6080753;23;20578;-86
2021/01/21 08:28:59;;;;;;;3.10;1.90;;;;;;;6.82;59.30;96536.28;6082111;23;20272;-85
2021/01/21 08:31:37;;;;;;;5.97;2.17;;;;;;;6.88;58.62;96536.00;6056255;23;20230;-85
2021/01/21 08:34:06;;;;;;;3.53;1.80;;;;;;;6.90;58.76;96540.19;6082951;23;20193;-84
2021/01/21 08:36:32;;;;;;;3.07;2.00;;;;;;;6.97;58.31;96540.72;6081484;23;20288;-85
2021/01/21 08:38:59;;;;;;;3.60;2.10;;;;;;;6.99;58.00;96520.75;6055842;23;20622;-85
2021/01/21 08:41:25;;;;;;;2.03;1.60;;;;;;;7.06;58.54;96526.47;6079881;23;20225;-83
2021/01/21 08:43:58;;;;;;;2.87;2.03;;;;;;;7.13;57.86;96526.06;6081511;23;20373;-84
2021/01/21 08:46:24;;;;;;;5.13;2.30;;;;;;;7.18;58.29;96525.00;6058509;23;20225;-84
2021/01/21 08:48:52;;;;;;;3.50;2.20;;;;;;;7.22;58.15;96521.31;6081327;23;20736;-85
2021/01/21 08:51:26;;;;;;;2.43;2.03;;;;;;;7.27;57.23;96527.13;6082330;23;20228;-85
2021/01/21 08:53:52;;;;;;;2.47;2.13;;;;;;;7.31;57.12;96515.66;6083771;23;20593;-85
2021/01/21 08:56:19;;;;;;;3.90;2.40;;;;;;;7.37;56.98;96523.16;6055169;23;20295;-84
2021/01/21 08:58:45;;;;;;;2.93;2.00;;;;;;;7.45;56.41;96525.34;6083106;23;20302;-84
2021/01/21 09:01:12;;;;;;;2.67;1.53;;;;;;;7.53;56.81;96524.03;6078618;23;20316;-84
2021/01/21 09:03:45;;;;;;;2.70;1.53;;;;;;;7.61;56.85;96525.34;6081034;23;20716;-83
2021/01/21 09:06:13;;;;;;;2.03;1.70;;;;;;;7.66;56.45;96525.97;6081588;23;20227;-85
2021/01/21 09:08:49;;;;;;;2.50;1.67;;;;;;;7.73;55.73;96525.53;6083687;23;20345;-85
2021/01/21 09:11:28;;;;;;;2.83;1.80;;;;;;;7.80;55.25;96515.69;6079984;23;20311;-85
2021/01/21 09:13:55;;;;;;;2.87;1.43;;;;;;;7.87;56.37;96522.22;6081537;23;20266;-84
2021/01/21 09:16:39;;;;;;;1.87;1.47;;;;;;;7.98;55.10;96533.81;6080832;23;20231;-85
2021/01/21 09:19:05;;;;;;;3.05;1.50;;;;;;;8.04;55.22;96533.47;6081322;23;20291;-84
2021/01/21 09:21:32;;;;;;;2.90;1.60;;;;;;;8.09;54.81;96532.28;6080289;23;20299;-84
2021/01/21 09:24:06;;;;;;;3.07;1.53;;;;;;;8.11;54.89;96540.81;6081654;23;20311;-84
2021/01/21 09:26:32;;;;;;;2.10;1.20;;;;;;;8.18;54.80;96533.56;6077448;23;20296;-84
2021/01/21 09:28:59;;;;;;;3.40;1.90;;;;;;;8.23;54.91;96525.50;6078962;23;20572;-86
2021/01/21 09:31:28;;;;;;;2.30;1.53;;;;;;;8.29;55.33;96541.59;6079560;23;20228;-84
2021/01/21 09:33:54;;;;;;;2.60;1.50;;;;;;;8.37;55.30;96537.72;6083693;23;20673;-84
2021/01/21 09:36:26;;;;;;;2.63;1.43;;;;;;;8.34;54.38;96550.88;6081025;23;20213;-84
2021/01/21 09:38:53;;;;;;;1.97;1.30;;;;;;;8.39;54.28;96521.13;6082162;23;20252;-85
2021/01/21 09:41:19;;;;;;;2.75;1.27;;;;;;;8.47;54.71;96544.09;6081022;23;20228;-85
2021/01/21 09:43:46;;;;;;;2.70;1.33;;;;;;;8.51;54.10;96545.63;6079782;23;20207;-85
2021/01/21 09:46:12;;;;;;;2.97;1.40;;;;;;;8.61;54.10;96533.78;6077785;23;20225;-85
2021/01/21 09:48:38;;;;;;;1.98;1.10;;;;;;;8.69;53.77;96538.53;6082634;23;20579;-83
2021/01/21 09:51:05;;;;;;;6.38;1.55;;;;;;;8.75;53.72;96539.94;6079601;23;20299;-83
2021/01/21 09:53:31;;;;;;;2.17;0.90;;;;;;;8.87;52.72;96549.66;6080767;23;20913;-83
2021/01/21 09:55:58;;;;;;;1.73;1.00;;;;;;;9.02;52.99;96545.34;6080048;23;20295;-85
2021/01/21 09:58:25;;;;;;;1.88;1.52;;;;;;;9.15;52.28;96529.84;6054595;23;20839;-85
2021/01/21 10:00:51;;;;;;;2.58;1.20;;;;;;;9.29;52.85;96537.69;6082523;23;20725;-85
2021/01/21 10:03:18;;;;;;;2.10;1.10;;;;;;;9.35;52.67;96528.66;6082156;23;20215;-86
2021/01/21 10:05:45;;;;;;;1.85;0.90;;;;;;;9.42;52.54;96541.22;6079811;23;20295;-85
2021/01/21 10:08:11;;;;;;;3.60;1.13;;;;;;;9.45;52.37;96535.84;6082960;23;20189;-85
2021/01/21 10:10:37;;;;;;;1.95;1.17;;;;;;;9.50;52.56;96532.13;6077735;23;20233;-84
2021/01/21 10:13:05;;;;;;;2.85;1.30;;;;;;;9.51;52.24;96532.03;6054280;23;20264;-84
2021/01/21 10:15:31;;;;;;;2.80;1.40;;;;;;;9.55;52.37;96532.69;6052415;23;20236;-83
2021/01/21 10:17:57;;;;;;;3.03;1.30;;;;;;;9.59;52.31;96536.78;6081750;23;20914;-84
2021/01/21 10:20:24;;;;;;;2.38;1.58;;;;;;;9.64;52.33;96534.72;6079661;23;20232;-86
2021/01/21 10:22:50;;;;;;;5.43;1.23;;;;;;;9.74;51.33;96538.47;6082776;23;20873;-85
2021/01/21 10:25:19;;;;;;;6.25;1.27;;;;;;;9.82;51.76;96536.22;6079060;23;20264;-86
2021/01/21 10:27:47;;;;;;;1.75;1.25;;;;;;;9.96;51.01;96529.31;6083501;23;20280;-85
2021/01/21 10:30:15;;;;;;;1.90;1.30;;;;;;;10.13;50.94;96516.09;6030655;23;20240;-84
2021/01/21 10:32:42;;;;;;;1.95;0.95;;;;;;;10.32;50.45;96509.72;6081448;23;20626;-84
2021/01/21 10:35:09;;;;;;;1.42;0.90;;;;;;;10.43;50.38;96502.06;6074511;23;20728;-84
2021/01/21 10:37:35;;;;;;;1.35;0.90;;;;;;;10.56;49.79;96513.38;6079937;23;20200;-84
2021/01/21 10:40:01;;;;;;;1.95;1.00;;;;;;;10.67;48.86;96509.22;6080183;23;20296;-84
2021/01/21 10:42:28;;;;;;;1.05;0.82;;;;;;;10.80;48.93;96490.06;6078782;23;20287;-85
2021/01/21 10:44:54;;;;;;;1.75;0.98;;;;;;;10.94;47.99;96489.16;6080541;23;20196;-86
2021/01/21 10:47:21;;;;;;;0.93;0.63;;;;;;;11.07;47.79;96477.91;6079146;23;20255;-85
2021/01/21 10:49:47;;;;;;;3.00;1.00;;;;;;;11.24;48.71;96485.41;6081396;23;20264;-85
2021/01/21 10:52:14;;;;;;;1.15;0.75;;;;;;;11.30;47.77;96479.81;6078518;23;20696;-86
2021/01/21 10:54:40;;;;;;;1.27;1.10;;;;;;;11.42;47.69;96472.06;6079992;23;20479;-85
2021/01/21 10:57:06;;;;;;;1.77;0.95;;;;;;;11.58;47.24;96480.53;6076797;23;20303;-84
2021/01/21 10:59:33;;;;;;;1.67;0.90;;;;;;;11.79;46.56;96493.84;6032126;23;20212;-85
2021/01/21 11:01:59;;;;;;;1.60;0.75;;;;;;;11.90;45.17;96465.22;6052229;23;20336;-85
2021/01/21 11:04:28;;;;;;;2.35;1.00;;;;;;;12.13;45.88;96484.50;6079743;23;20204;-86
2021/01/21 11:06:54;;;;;;;0.95;0.60;;;;;;;12.25;45.76;96468.88;6055603;23;20278;-84
2021/01/21 11:09:29;;;;;;;0.60;0.60;;;;;;;12.35;45.09;96472.47;6082576;23;20295;-86
2021/01/21 11:11:56;;;;;;;1.27;0.70;;;;;;;12.44;44.96;96470.97;6081317;23;20322;-84
2021/01/21 11:14:22;;;;;;;0.98;0.70;;;;;;;12.48;44.96;96481.13;6080942;23;20185;-85
2021/01/21 11:16:48;;;;;;;2.10;0.77;;;;;;;12.51;44.41;96486.09;6078891;23;20304;-85
2021/01/21 11:19:14;;;;;;;1.30;0.80;;;;;;;12.53;44.40;96489.47;6080549;23;20293;-83
2021/01/21 11:21:42;;;;;;;1.27;0.70;;;;;;;12.51;44.79;96487.91;6077228;23;20255;-86
2021/01/21 11:24:08;;;;;;;1.05;0.80;;;;;;;12.48;44.85;96486.34;6078187;23;20708;-85
2021/01/21 11:26:34;;;;;;;1.08;0.68;;;;;;;12.53;44.83;96492.09;6077695;23;20307;-84
2021/01/21 11:29:01;;;;;;;1.10;0.60;;;;;;;12.57;44.81;96476.97;6076118;23;20195;-86
2021/01/21 11:31:27;;;;;;;1.65;0.98;;;;;;;12.50;44.80;96488.84;6080829;23;20399;-84
2021/01/21 11:33:53;;;;;;;3.60;1.70;;;;;;;12.63;45.46;96480.94;6054845;23;20189;-86
2021/01/21 11:36:20;;;;;;;1.98;0.93;;;;;;;12.71;45.39;96474.19;6077092;23;20910;-85
2021/01/21 11:38:47;;;;;;;2.05;0.80;;;;;;;12.82;45.40;96468.16;6081379;23;20216;-85
2021/01/21 11:41:13;;;;;;;1.73;0.77;;;;;;;13.46;45.23;96456.41;6075260;23;20229;-86
2021/01/21 11:43:40;;;;;;;1.48;0.70;;;;;;;14.62;43.00;96456.81;6077518;23;20276;-84